createdAt,value
2023-01-25T00:02:23.514Z,53.70
2023-01-25T00:04:49.991Z,55.67
2023-01-25T00:07:16.487Z,52.00
2023-01-25T00:09:42.898Z,48.50
2023-01-25T00:12:09.442Z,50.50
2023-01-25T00:14:36.032Z,54.20
2023-01-25T00:17:02.431Z,56.53
2023-01-25T00:19:29.947Z,50.83
2023-01-25T00:21:56.484Z,51.77
2023-01-25T00:24:23.441Z,54.73
2023-01-25T00:26:49.934Z,48.67
2023-01-25T00:29:16.336Z,51.53
2023-01-25T00:31:48.950Z,50.63
2023-01-25T00:34:24.860Z,54.93
2023-01-25T00:37:12.146Z,56.87
2023-01-25T00:39:42.209Z,56.70
2023-01-25T00:42:11.020Z,47.50
2023-01-25T00:44:38.585Z,49.33
2023-01-25T00:47:08.007Z,48.30
2023-01-25T00:49:34.656Z,55.23
2023-01-25T00:52:01.125Z,50.07
2023-01-25T00:54:27.552Z,58.07
2023-01-25T00:56:56.233Z,54.93
2023-01-25T00:59:23.798Z,55.87
2023-01-25T01:01:50.892Z,55.30
2023-01-25T01:04:17.700Z,60.17
2023-01-25T01:06:47.959Z,59.50
2023-01-25T01:09:18.279Z,59.37
2023-01-25T01:11:45.479Z,53.93
2023-01-25T01:14:12.463Z,54.83
2023-01-25T01:16:39.241Z,48.97
2023-01-25T01:19:06.001Z,48.10
2023-01-25T01:21:32.900Z,49.17
2023-01-25T01:24:00.069Z,49.47
2023-01-25T01:26:27.483Z,45.33
2023-01-25T01:28:54.070Z,48.50
2023-01-25T01:31:23.209Z,46.00
2023-01-25T01:33:51.052Z,47.50
2023-01-25T01:36:18.829Z,42.53
2023-01-25T01:38:46.524Z,40.30
2023-01-25T01:41:13.804Z,39.77
2023-01-25T01:43:40.664Z,33.60
2023-01-25T01:46:16.122Z,38.10
2023-01-25T01:49:01.953Z,39.23
2023-01-25T01:51:43.262Z,33.83
2023-01-25T01:54:18.339Z,38.47
2023-01-25T01:57:05.479Z,31.40
2023-01-25T01:59:39.855Z,36.63
2023-01-25T02:02:07.162Z,36.73
2023-01-25T02:04:33.982Z,35.03
2023-01-25T02:07:07.386Z,37.57
2023-01-25T02:09:35.295Z,37.37
2023-01-25T02:12:02.364Z,35.63
2023-01-25T02:14:29.687Z,33.90
2023-01-25T02:16:57.106Z,38.37
2023-01-25T02:19:42.143Z,35.90
2023-01-25T02:22:10.808Z,34.50
2023-01-25T02:24:38.615Z,34.70
2023-01-25T02:27:05.724Z,33.23
2023-01-25T02:29:33.252Z,34.83
2023-01-25T02:32:03.378Z,32.97
2023-01-25T02:34:30.073Z,36.77
2023-01-25T02:36:57.308Z,34.80
2023-01-25T02:39:26.642Z,37.30
2023-01-25T02:41:53.173Z,38.27
2023-01-25T02:44:29.263Z,36.50
2023-01-25T02:46:56.620Z,34.47
2023-01-25T02:49:23.546Z,39.40
2023-01-25T02:51:55.882Z,35.47
2023-01-25T02:54:23.992Z,36.13
2023-01-25T02:56:50.583Z,36.47
2023-01-25T02:59:18.931Z,35.47
2023-01-25T03:01:45.740Z,37.40
2023-01-25T03:04:12.692Z,38.40
2023-01-25T03:06:39.845Z,36.93
2023-01-25T03:09:08.032Z,43.30
2023-01-25T03:11:34.827Z,37.23
2023-01-25T03:14:01.910Z,38.93
2023-01-25T03:16:30.861Z,37.80
2023-01-25T03:18:57.895Z,40.07
2023-01-25T03:21:24.668Z,37.73
2023-01-25T03:23:56.940Z,37.90
2023-01-25T03:26:23.967Z,36.63
2023-01-25T03:28:51.659Z,36.20
2023-01-25T03:31:19.330Z,38.67
2023-01-25T03:33:46.867Z,38.43
2023-01-25T03:36:13.475Z,39.50
2023-01-25T03:38:40.008Z,41.30
2023-01-25T03:41:07.844Z,37.47
2023-01-25T03:43:34.918Z,38.63
2023-01-25T03:46:01.993Z,34.73
2023-01-25T03:48:29.208Z,38.23
2023-01-25T03:50:58.663Z,38.97
2023-01-25T03:53:29.917Z,39.33
2023-01-25T03:56:08.321Z,37.43
2023-01-25T03:58:36.022Z,39.63
2023-01-25T04:01:04.037Z,45.07
2023-01-25T04:03:31.408Z,39.43
2023-01-25T04:05:58.035Z,36.90
2023-01-25T04:08:25.099Z,35.73
2023-01-25T04:10:53.012Z,39.93
2023-01-25T04:13:23.578Z,38.90
2023-01-25T04:15:49.936Z,36.57
2023-01-25T04:18:16.804Z,37.87
2023-01-25T04:20:44.184Z,38.80
2023-01-25T04:23:11.350Z,40.20
2023-01-25T04:25:38.745Z,33.97
2023-01-25T04:28:05.377Z,32.17
2023-01-25T04:30:31.980Z,37.33
2023-01-25T04:33:05.770Z,36.67
2023-01-25T04:35:32.419Z,38.73
2023-01-25T04:37:59.714Z,38.63
2023-01-25T04:40:26.821Z,37.77
2023-01-25T04:42:53.213Z,43.93
2023-01-25T04:45:19.618Z,43.33
2023-01-25T04:47:46.831Z,39.03
2023-01-25T04:50:13.484Z,43.47
2023-01-25T04:52:40.155Z,38.83
2023-01-25T04:55:06.951Z,35.10
2023-01-25T04:57:33.904Z,33.33
2023-01-25T05:00:00.439Z,35.27
2023-01-25T05:02:27.467Z,36.90
2023-01-25T05:04:53.828Z,33.70
2023-01-25T05:07:20.251Z,31.40
2023-01-25T05:09:46.624Z,34.97
2023-01-25T05:12:13.697Z,35.57
2023-01-25T05:14:40.418Z,34.33
2023-01-25T05:17:08.691Z,31.70
2023-01-25T05:19:35.967Z,32.23
2023-01-25T05:22:03.658Z,34.83
2023-01-25T05:24:32.067Z,32.87
2023-01-25T05:27:01.601Z,33.80
2023-01-25T05:29:28.822Z,33.83
2023-01-25T05:31:55.502Z,35.40
2023-01-25T05:34:22.457Z,32.33
2023-01-25T05:36:49.050Z,33.37
2023-01-25T05:39:15.427Z,33.50
2023-01-25T05:41:41.746Z,34.17
2023-01-25T05:44:08.198Z,35.47
2023-01-25T05:46:34.787Z,36.43
2023-01-25T05:49:01.493Z,35.27
2023-01-25T05:51:27.911Z,34.33
2023-01-25T05:53:56.121Z,35.30
2023-01-25T05:56:23.015Z,38.60
2023-01-25T05:58:54.004Z,32.47
2023-01-25T06:01:20.895Z,36.70
2023-01-25T06:03:48.113Z,37.33
2023-01-25T06:06:14.565Z,38.30
2023-01-25T06:08:41.213Z,34.23
2023-01-25T06:11:12.519Z,35.13
2023-01-25T06:13:39.087Z,33.83
2023-01-25T06:16:07.011Z,38.43
2023-01-25T06:18:35.006Z,36.90
2023-01-25T06:21:02.372Z,35.80
2023-01-25T06:23:29.234Z,35.27
2023-01-25T06:26:05.468Z,37.33
2023-01-25T06:28:32.858Z,36.80
2023-01-25T06:31:11.728Z,34.97
2023-01-25T06:33:38.693Z,34.83
2023-01-25T06:36:07.947Z,32.00
2023-01-25T06:38:34.596Z,34.07
2023-01-25T06:41:02.735Z,37.87
2023-01-25T06:43:30.190Z,36.97
2023-01-25T06:46:00.949Z,37.60
2023-01-25T06:48:28.392Z,35.37
2023-01-25T06:51:02.079Z,31.23
2023-01-25T06:53:31.879Z,34.90
2023-01-25T06:56:01.372Z,34.83
2023-01-25T06:58:28.912Z,29.27
2023-01-25T07:01:03.847Z,31.30
2023-01-25T07:03:31.062Z,33.73
2023-01-25T07:06:02.212Z,33.37
2023-01-25T07:08:29.345Z,33.00
2023-01-25T07:10:59.190Z,34.87
2023-01-25T07:13:26.631Z,35.17
2023-01-25T07:15:54.896Z,36.47
2023-01-25T07:18:21.758Z,31.70
2023-01-25T07:20:48.144Z,32.67
2023-01-25T07:23:14.733Z,33.43
2023-01-25T07:25:48.755Z,36.47
2023-01-25T07:28:16.100Z,34.57
2023-01-25T07:30:43.240Z,31.77
2023-01-25T07:33:10.774Z,36.10
2023-01-25T07:35:37.575Z,37.13
2023-01-25T07:38:04.271Z,37.23
2023-01-25T07:40:30.777Z,30.77
2023-01-25T07:42:58.694Z,34.57
2023-01-25T07:45:30.503Z,35.27
2023-01-25T07:47:58.800Z,33.20
2023-01-25T07:50:26.797Z,31.93
2023-01-25T07:52:54.111Z,33.10
2023-01-25T07:55:21.024Z,34.33
2023-01-25T07:57:47.978Z,31.53
2023-01-25T08:00:14.806Z,34.03
2023-01-25T08:02:41.540Z,38.80
2023-01-25T08:05:08.647Z,37.23
2023-01-25T08:07:35.447Z,35.17
2023-01-25T08:10:05.603Z,33.77
2023-01-25T08:12:34.579Z,33.30
2023-01-25T08:15:01.917Z,34.73
2023-01-25T08:17:31.913Z,36.13
2023-01-25T08:19:59.871Z,35.67
2023-01-25T08:22:27.572Z,35.67
2023-01-25T08:24:54.371Z,35.20
2023-01-25T08:27:20.898Z,37.17
2023-01-25T08:29:47.344Z,34.77
2023-01-25T08:32:13.702Z,35.17
2023-01-25T08:34:40.978Z,35.93
2023-01-25T08:37:07.467Z,33.67
2023-01-25T08:39:34.028Z,33.30
2023-01-25T08:42:00.446Z,32.73
2023-01-25T08:44:26.852Z,32.07
2023-01-25T08:46:53.224Z,29.20
2023-01-25T08:49:19.592Z,30.93
2023-01-25T08:51:47.269Z,32.20
2023-01-25T08:54:14.185Z,33.70
2023-01-25T08:56:41.122Z,29.87
2023-01-25T08:59:10.019Z,26.33
2023-01-25T09:01:36.540Z,31.97
2023-01-25T09:04:03.024Z,28.77
2023-01-25T09:06:30.522Z,34.17
2023-01-25T09:08:58.882Z,32.27
2023-01-25T09:11:25.473Z,31.90
2023-01-25T09:13:52.054Z,30.07
2023-01-25T09:16:27.935Z,31.77
2023-01-25T09:18:56.177Z,35.50
2023-01-25T09:21:22.741Z,27.77
2023-01-25T09:24:08.930Z,30.60
2023-01-25T09:26:39.150Z,32.73
2023-01-25T09:29:07.937Z,33.53
2023-01-25T09:31:35.401Z,37.73
2023-01-25T09:34:02.041Z,36.47
2023-01-25T09:36:28.613Z,38.83
2023-01-25T09:38:55.446Z,35.50
2023-01-25T09:41:58.376Z,33.90
2023-01-25T09:44:52.295Z,36.77
2023-01-25T09:47:27.804Z,39.63
2023-01-25T09:49:57.154Z,35.60
2023-01-25T09:52:42.795Z,35.97
2023-01-25T09:55:14.273Z,36.47
2023-01-25T09:57:42.909Z,37.73
2023-01-25T10:00:16.716Z,34.50
2023-01-25T10:02:52.085Z,33.73
2023-01-25T10:05:21.892Z,34.17
2023-01-25T10:07:58.763Z,33.20
2023-01-25T10:10:39.543Z,34.60
2023-01-25T10:13:11.973Z,35.23
2023-01-25T10:15:41.498Z,33.97
2023-01-25T10:18:23.276Z,35.10
2023-01-25T10:20:54.958Z,34.00
2023-01-25T10:23:39.581Z,32.33
2023-01-25T10:26:33.297Z,35.00
2023-01-25T10:29:11.093Z,36.70
2023-01-25T10:31:44.666Z,32.93
2023-01-25T10:34:22.011Z,33.10
2023-01-25T10:36:56.876Z,31.20
2023-01-25T10:39:34.102Z,32.53
2023-01-25T10:42:05.491Z,33.63
2023-01-25T10:44:36.647Z,35.23
2023-01-25T10:47:12.218Z,32.23
2023-01-25T10:49:51.387Z,33.23
2023-01-25T10:52:26.050Z,29.57
2023-01-25T10:55:14.231Z,28.57
2023-01-25T10:57:44.256Z,31.60
2023-01-25T11:00:42.328Z,32.37
2023-01-25T11:03:38.947Z,35.40
2023-01-25T11:06:06.409Z,33.00
2023-01-25T11:08:36.045Z,31.83
2023-01-25T11:11:25.629Z,35.40
2023-01-25T11:13:55.302Z,30.87
2023-01-25T11:16:32.073Z,28.60
2023-01-25T11:19:00.566Z,27.67
2023-01-25T11:21:31.869Z,31.30
2023-01-25T11:24:15.007Z,28.10
2023-01-25T11:26:41.711Z,25.83
2023-01-25T11:29:20.162Z,26.17
2023-01-25T11:31:49.348Z,26.50
2023-01-25T11:34:21.025Z,26.07
2023-01-25T11:37:18.475Z,30.67
2023-01-25T11:39:48.658Z,27.90
2023-01-25T11:42:24.172Z,28.60
2023-01-25T11:45:08.463Z,26.27
2023-01-25T11:47:53.491Z,25.57
2023-01-25T11:50:19.849Z,23.83
2023-01-25T11:53:14.466Z,25.73
2023-01-25T11:55:49.602Z,29.73
2023-01-25T11:58:40.569Z,31.63
2023-01-25T12:01:38.645Z,28.80
2023-01-25T12:04:36.657Z,29.73
2023-01-25T12:07:05.503Z,31.97
2023-01-25T12:09:46.643Z,31.40
2023-01-25T12:12:18.972Z,28.67
2023-01-25T12:15:16.581Z,32.20
2023-01-25T12:18:04.255Z,31.07
2023-01-25T12:20:36.888Z,31.10
2023-01-25T12:23:22.208Z,31.10
2023-01-25T12:26:10.540Z,29.27
2023-01-25T12:28:43.540Z,26.13
2023-01-25T12:31:23.738Z,31.37
2023-01-25T12:34:03.644Z,29.30
2023-01-25T12:36:44.222Z,26.83
2023-01-25T12:39:20.878Z,28.53
2023-01-25T12:42:15.294Z,27.43
2023-01-25T12:44:45.167Z,26.00
2023-01-25T12:47:20.682Z,25.93
2023-01-25T12:50:13.659Z,25.77
2023-01-25T12:52:52.595Z,28.10
2023-01-25T12:55:19.387Z,24.03
2023-01-25T12:58:00.897Z,26.33
2023-01-25T13:00:35.523Z,25.23
2023-01-25T13:03:31.737Z,25.03
2023-01-25T13:06:26.194Z,25.27
2023-01-25T13:09:03.868Z,28.60
2023-01-25T13:11:33.816Z,24.50
2023-01-25T13:14:15.864Z,24.73
2023-01-25T13:16:51.855Z,27.23
2023-01-25T13:19:29.567Z,22.27
2023-01-25T13:21:58.332Z,24.23
2023-01-25T13:24:32.617Z,22.93
2023-01-25T13:27:01.792Z,24.77
2023-01-25T13:29:42.845Z,22.60
2023-01-25T13:32:12.412Z,28.73
2023-01-25T13:34:39.339Z,75.83
2023-01-25T13:37:26.202Z,28.90
2023-01-25T13:39:57.526Z,21.00
2023-01-25T13:42:25.670Z,26.43
2023-01-25T13:45:01.933Z,28.23
2023-01-25T13:47:37.873Z,27.67
2023-01-25T13:50:21.158Z,28.13
2023-01-25T13:53:17.735Z,24.30
2023-01-25T13:55:49.848Z,23.77
2023-01-25T13:58:28.291Z,23.50
2023-01-25T14:00:57.893Z,25.73
2023-01-25T14:03:59.592Z,27.17
2023-01-25T14:06:29.405Z,23.83
2023-01-25T14:08:58.408Z,25.93
2023-01-25T14:11:30.583Z,27.40
2023-01-25T14:14:17.910Z,29.00
2023-01-25T14:16:45.078Z,25.60
2023-01-25T14:19:25.788Z,27.90
2023-01-25T14:22:11.105Z,22.93
2023-01-25T14:24:37.702Z,25.13
2023-01-25T14:27:06.970Z,22.80
2023-01-25T14:29:35.349Z,24.57
2023-01-25T14:32:03.073Z,27.27
2023-01-25T14:34:29.518Z,28.00
2023-01-25T14:37:18.025Z,29.63
2023-01-25T14:39:45.651Z,28.17
2023-01-25T14:42:12.347Z,30.90
2023-01-25T14:44:38.963Z,27.20
2023-01-25T14:47:31.075Z,29.77
2023-01-25T14:50:32.585Z,27.23
2023-01-25T14:53:06.200Z,26.37
2023-01-25T14:55:32.621Z,25.53
2023-01-25T14:58:00.907Z,30.77
2023-01-25T15:00:31.953Z,30.70
2023-01-25T15:03:05.435Z,33.17
2023-01-25T15:05:34.632Z,29.57
2023-01-25T15:08:07.051Z,33.10
2023-01-25T15:10:56.916Z,33.20
2023-01-25T15:13:28.115Z,32.70
2023-01-25T15:15:59.867Z,36.10
2023-01-25T15:18:50.600Z,34.13
2023-01-25T15:21:19.787Z,31.37
2023-01-25T15:23:48.074Z,28.70
2023-01-25T15:26:19.570Z,29.97
2023-01-25T15:28:46.613Z,32.93
2023-01-25T15:31:18.626Z,28.03
2023-01-25T15:33:45.621Z,33.87
2023-01-25T15:36:13.157Z,33.80
2023-01-25T15:38:39.695Z,33.30
2023-01-25T15:41:06.234Z,33.30
2023-01-25T15:43:32.756Z,32.60
2023-01-25T15:46:00.331Z,31.00
2023-01-25T15:48:33.874Z,33.03
2023-01-25T15:51:00.759Z,35.43
2023-01-25T15:53:27.325Z,31.27
2023-01-25T15:56:18.263Z,33.83
2023-01-25T15:58:47.933Z,35.60
2023-01-25T16:01:14.917Z,33.93
2023-01-25T16:03:41.814Z,31.87
2023-01-25T16:06:32.614Z,32.33
2023-01-25T16:08:59.824Z,30.07
2023-01-25T16:11:27.488Z,30.70
2023-01-25T16:13:54.059Z,37.80
2023-01-25T16:16:22.442Z,32.97
2023-01-25T16:18:48.921Z,37.57
2023-01-25T16:21:15.728Z,37.37
2023-01-25T16:23:42.616Z,35.20
2023-01-25T16:26:19.735Z,37.73
2023-01-25T16:28:46.362Z,40.00
2023-01-25T16:31:31.441Z,40.03
2023-01-25T16:33:59.323Z,41.50
2023-01-25T16:36:25.825Z,42.23
2023-01-25T16:38:52.421Z,41.67
2023-01-25T16:41:20.407Z,48.53
2023-01-25T16:43:48.214Z,47.10
2023-01-25T16:46:19.012Z,47.03
2023-01-25T16:48:46.735Z,46.70
2023-01-25T16:51:16.259Z,46.77
2023-01-25T16:53:42.922Z,43.70
2023-01-25T16:56:15.822Z,49.37
2023-01-25T16:58:42.394Z,49.97
2023-01-25T17:01:10.650Z,46.97
2023-01-25T17:03:37.056Z,47.90
2023-01-25T17:06:04.962Z,45.87
2023-01-25T17:08:31.967Z,50.57
2023-01-25T17:11:03.960Z,47.37
2023-01-25T17:13:30.739Z,49.20
2023-01-25T17:15:57.318Z,45.77
2023-01-25T17:18:23.990Z,47.93
2023-01-25T17:21:01.541Z,48.23
2023-01-25T17:23:28.314Z,44.73
2023-01-25T17:25:55.711Z,44.77
2023-01-25T17:28:22.770Z,46.70
2023-01-25T17:30:53.463Z,47.57
2023-01-25T17:33:20.798Z,43.83
2023-01-25T17:35:47.621Z,45.43
2023-01-25T17:38:14.433Z,43.03
2023-01-25T17:40:42.019Z,44.70
2023-01-25T17:43:08.370Z,49.03
2023-01-25T17:45:39.215Z,50.53
2023-01-25T17:48:07.697Z,56.73
2023-01-25T17:50:36.355Z,54.23
2023-01-25T17:53:04.029Z,49.60
2023-01-25T17:55:30.520Z,54.30
2023-01-25T17:57:58.372Z,53.30
2023-01-25T18:00:24.814Z,56.37
2023-01-25T18:02:52.188Z,53.67
2023-01-25T18:05:18.716Z,56.53
2023-01-25T18:07:47.544Z,55.83
2023-01-25T18:10:14.053Z,58.43
2023-01-25T18:12:42.115Z,55.53
2023-01-25T18:15:09.577Z,63.70
2023-01-25T18:17:38.424Z,64.00
2023-01-25T18:20:06.363Z,65.93
2023-01-25T18:22:32.910Z,67.63
2023-01-25T18:24:59.376Z,64.80
2023-01-25T18:27:27.764Z,65.30
2023-01-25T18:30:22.999Z,59.83
2023-01-25T18:32:49.439Z,58.57
2023-01-25T18:35:15.824Z,60.10
2023-01-25T18:37:45.727Z,59.23
2023-01-25T18:40:13.993Z,62.60
2023-01-25T18:42:40.867Z,64.87
2023-01-25T18:45:09.412Z,61.67
2023-01-25T18:47:37.118Z,64.83
2023-01-25T18:50:03.871Z,61.60
2023-01-25T18:52:30.455Z,67.57
2023-01-25T18:54:57.375Z,59.23
2023-01-25T18:57:23.911Z,58.53
2023-01-25T18:59:50.370Z,59.07
2023-01-25T19:02:17.104Z,60.77
2023-01-25T19:04:44.066Z,64.83
2023-01-25T19:07:10.575Z,61.87
2023-01-25T19:09:37.127Z,68.60
2023-01-25T19:12:08.448Z,61.33
2023-01-25T19:14:36.226Z,64.93
2023-01-25T19:17:02.794Z,65.87
2023-01-25T19:19:32.231Z,65.37
2023-01-25T19:22:08.112Z,63.60
2023-01-25T19:24:34.826Z,63.63
2023-01-25T19:27:01.566Z,65.43
2023-01-25T19:29:29.263Z,64.37
2023-01-25T19:32:11.257Z,61.57
2023-01-25T19:34:41.063Z,63.43
2023-01-25T19:37:08.090Z,62.57
2023-01-25T19:39:34.741Z,67.73
2023-01-25T19:42:01.378Z,63.10
2023-01-25T19:44:28.074Z,64.47
2023-01-25T19:46:57.373Z,61.23
2023-01-25T19:49:24.397Z,63.97
2023-01-25T19:51:53.188Z,66.40
2023-01-25T19:54:21.764Z,64.17
2023-01-25T19:56:49.354Z,63.23
2023-01-25T19:59:18.633Z,67.43
2023-01-25T20:01:46.244Z,62.83
2023-01-25T20:04:15.331Z,60.47
2023-01-25T20:06:43.232Z,65.67
2023-01-25T20:09:14.151Z,66.70
2023-01-25T20:11:43.108Z,68.23
2023-01-25T20:14:12.127Z,64.43
2023-01-25T20:16:41.793Z,69.73
2023-01-25T20:19:12.824Z,69.73
2023-01-25T20:21:39.971Z,71.93
2023-01-25T20:24:10.162Z,65.67
2023-01-25T20:26:40.218Z,71.37
2023-01-25T20:29:08.062Z,72.40
2023-01-25T20:31:45.690Z,71.00
2023-01-25T20:34:17.426Z,70.37
2023-01-25T20:36:44.263Z,69.17
2023-01-25T20:39:16.482Z,66.97
2023-01-25T20:41:43.547Z,65.47
2023-01-25T20:44:11.842Z,63.87
2023-01-25T20:46:40.547Z,60.93
2023-01-25T20:49:12.148Z,60.67
2023-01-25T20:51:38.637Z,66.77
2023-01-25T20:54:05.115Z,59.70
2023-01-25T20:56:32.405Z,61.30
2023-01-25T20:58:58.959Z,62.43
2023-01-25T21:01:33.192Z,60.93
2023-01-25T21:04:00.924Z,65.90
2023-01-25T21:06:31.819Z,63.63
2023-01-25T21:08:59.311Z,66.37
2023-01-25T21:11:26.223Z,66.40
2023-01-25T21:13:53.944Z,61.03
2023-01-25T21:16:21.941Z,60.90
2023-01-25T21:18:54.523Z,64.53
2023-01-25T21:21:29.393Z,62.10
2023-01-25T21:23:58.981Z,63.43
2023-01-25T21:26:28.109Z,63.23
2023-01-25T21:28:55.338Z,69.33
2023-01-25T21:31:30.069Z,62.40
2023-01-25T21:33:56.955Z,67.63
2023-01-25T21:36:23.437Z,73.30
2023-01-25T21:38:52.004Z,68.20
2023-01-25T21:41:24.712Z,65.70
2023-01-25T21:44:12.955Z,69.53
2023-01-25T21:46:39.915Z,69.23
2023-01-25T21:49:27.390Z,70.50
2023-01-25T21:51:55.436Z,72.73
2023-01-25T21:54:27.095Z,72.57
2023-01-25T21:56:54.977Z,69.30
2023-01-25T21:59:22.026Z,74.50
2023-01-25T22:01:49.252Z,66.47
2023-01-25T22:04:17.761Z,73.60
2023-01-25T22:06:48.784Z,75.97
2023-01-25T22:09:15.868Z,72.87
2023-01-25T22:11:42.693Z,81.93
2023-01-25T22:14:09.164Z,74.17
2023-01-25T22:16:35.565Z,82.27
2023-01-25T22:19:01.980Z,85.10
2023-01-25T22:21:31.953Z,75.50
2023-01-25T22:23:59.889Z,81.60
2023-01-25T22:26:31.984Z,77.50
2023-01-25T22:29:00.653Z,74.77
2023-01-25T22:31:29.876Z,78.83
2023-01-25T22:33:58.723Z,76.27
2023-01-25T22:36:28.915Z,81.57
2023-01-25T22:38:55.397Z,76.50
2023-01-25T22:41:29.550Z,78.10
2023-01-25T22:43:56.114Z,80.13
2023-01-25T22:46:26.955Z,79.70
2023-01-25T22:48:53.811Z,79.63
2023-01-25T22:51:25.335Z,77.03
2023-01-25T22:53:53.944Z,78.10
2023-01-25T22:56:22.936Z,73.30
2023-01-25T22:58:50.216Z,73.23
2023-01-25T23:01:19.520Z,70.57
2023-01-25T23:03:46.429Z,73.80
2023-01-25T23:06:18.790Z,79.33
2023-01-25T23:08:45.750Z,74.67
2023-01-25T23:11:20.834Z,76.17
2023-01-25T23:14:06.360Z,78.87
2023-01-25T23:16:34.217Z,76.20
2023-01-25T23:19:00.935Z,75.27
2023-01-25T23:21:29.980Z,77.97
2023-01-25T23:24:03.664Z,75.83
2023-01-25T23:26:37.835Z,76.10
2023-01-25T23:29:12.091Z,68.63
2023-01-25T23:31:38.536Z,74.20
2023-01-25T23:34:06.478Z,78.03
2023-01-25T23:36:35.494Z,80.73
2023-01-25T23:39:02.011Z,71.57
2023-01-25T23:41:29.702Z,73.13
2023-01-25T23:43:56.511Z,78.67
2023-01-25T23:46:24.052Z,79.30
2023-01-25T23:48:51.059Z,75.63
2023-01-25T23:51:18.477Z,75.53
2023-01-25T23:53:45.331Z,76.70
2023-01-25T23:56:20.312Z,81.73
2023-01-25T23:58:47.102Z,83.80
